createdAt,value
2017-06-21T00:00:14.259Z,984.6
2017-06-21T00:01:16.745Z,984.5
2017-06-21T00:02:19.204Z,984.6
2017-06-21T00:03:21.696Z,984.5
2017-06-21T00:04:24.174Z,984.6
2017-06-21T00:05:26.676Z,984.5
2017-06-21T00:06:29.116Z,984.6
2017-06-21T00:07:31.563Z,984.6
2017-06-21T00:08:34.038Z,984.5
2017-06-21T00:09:36.581Z,984.5
2017-06-21T00:10:39.084Z,984.6
2017-06-21T00:11:41.539Z,984.6
2017-06-21T00:12:44.059Z,984.6
2017-06-21T00:13:46.533Z,984.6
2017-06-21T00:14:49.026Z,984.3
2017-06-21T00:15:51.470Z,984.6
2017-06-21T00:16:53.987Z,984.5
2017-06-21T00:17:56.554Z,984.5
2017-06-21T00:18:59.384Z,984.6
2017-06-21T00:20:01.847Z,984.6
2017-06-21T00:21:04.355Z,984.6
2017-06-21T00:22:06.832Z,984.6
2017-06-21T00:23:09.314Z,984.5
2017-06-21T00:24:11.804Z,984.5
2017-06-21T00:25:14.279Z,984.5
2017-06-21T00:26:16.764Z,984.6
2017-06-21T00:27:19.261Z,984.6
2017-06-21T00:28:21.750Z,984.6
2017-06-21T00:29:24.229Z,984.6
2017-06-21T00:30:26.680Z,984.2
2017-06-21T00:31:29.120Z,984.6
2017-06-21T00:32:31.599Z,984.6
2017-06-21T00:33:34.107Z,984.5
2017-06-21T00:34:36.643Z,984.5
2017-06-21T00:35:39.098Z,984.5
2017-06-21T00:36:42.236Z,984.4
2017-06-21T00:37:44.730Z,984.5
2017-06-21T00:38:47.225Z,984.5
2017-06-21T00:39:49.737Z,984.5
2017-06-21T00:40:52.173Z,984.5
2017-06-21T00:41:54.654Z,984.5
2017-06-21T00:42:57.138Z,984.5
2017-06-21T00:43:59.591Z,984.6
2017-06-21T00:45:02.054Z,984.5
2017-06-21T00:46:04.572Z,984.5
2017-06-21T00:47:07.234Z,984.5
2017-06-21T00:48:09.712Z,984.5
2017-06-21T00:49:12.156Z,984.5
2017-06-21T00:50:16.249Z,984.3
2017-06-21T00:51:18.759Z,984.5
2017-06-21T00:52:21.284Z,984.5
2017-06-21T00:53:23.854Z,984.5
2017-06-21T00:54:26.297Z,984.5
2017-06-21T00:55:28.751Z,984.6
2017-06-21T00:56:31.234Z,984.5
2017-06-21T00:57:33.703Z,984.5
2017-06-21T00:58:36.180Z,984.5
2017-06-21T00:59:38.642Z,984.5
2017-06-21T01:00:41.183Z,984.5
2017-06-21T01:01:43.665Z,984.5
2017-06-21T01:02:46.185Z,984.5
2017-06-21T01:03:48.942Z,984.5
2017-06-21T01:04:51.372Z,984.6
2017-06-21T01:05:53.888Z,984.5
2017-06-21T01:06:56.335Z,984.5
2017-06-21T01:07:58.797Z,984.5
2017-06-21T01:09:01.243Z,984.5
2017-06-21T01:10:03.803Z,984.5
2017-06-21T01:11:06.396Z,984.5
2017-06-21T01:12:08.855Z,984.5
2017-06-21T01:13:11.329Z,984.5
2017-06-21T01:14:13.809Z,984.5
2017-06-21T01:15:16.277Z,984.5
2017-06-21T01:16:18.741Z,984.5
2017-06-21T01:17:21.164Z,984.4
2017-06-21T01:18:23.624Z,984.4
2017-06-21T01:19:26.223Z,984.4
2017-06-21T01:20:28.683Z,984.5
2017-06-21T01:21:31.151Z,984.4
2017-06-21T01:22:33.881Z,984.5
2017-06-21T01:23:36.429Z,984.5
2017-06-21T01:24:38.966Z,984.5
2017-06-21T01:25:41.464Z,984.5
2017-06-21T01:26:43.927Z,984.5
2017-06-21T01:27:46.408Z,984.5
2017-06-21T01:28:48.856Z,984.5
2017-06-21T01:29:51.319Z,984.5
2017-06-21T01:30:53.773Z,984.5
2017-06-21T01:31:56.212Z,984.5
2017-06-21T01:32:58.627Z,984.5
2017-06-21T01:34:01.078Z,984.5
2017-06-21T01:35:03.714Z,984.4
2017-06-21T01:36:06.298Z,984.5
2017-06-21T01:37:08.850Z,984.5
2017-06-21T01:38:11.288Z,984.5
2017-06-21T01:39:13.786Z,984.5
2017-06-21T01:40:16.380Z,984.5
2017-06-21T01:41:18.908Z,984.5
2017-06-21T01:42:21.898Z,984.5
2017-06-21T01:43:24.369Z,984.5
2017-06-21T01:44:26.819Z,984.5
2017-06-21T01:45:29.291Z,984.5
2017-06-21T01:46:31.728Z,984.5
2017-06-21T01:47:34.191Z,984.4
2017-06-21T01:48:36.673Z,984.4
2017-06-21T01:49:39.110Z,984.4
2017-06-21T01:50:41.544Z,984.4
2017-06-21T01:51:44.051Z,984.4
2017-06-21T01:52:46.844Z,984.4
2017-06-21T01:53:49.332Z,984.4
2017-06-21T01:54:51.820Z,984.5
2017-06-21T01:55:54.294Z,984.5
2017-06-21T01:56:56.798Z,984.4
2017-06-21T01:57:59.276Z,984.4
2017-06-21T01:59:01.772Z,984.5
2017-06-21T02:00:04.259Z,984.5
2017-06-21T02:01:06.796Z,984.5
2017-06-21T02:02:09.282Z,984.4
2017-06-21T02:03:11.773Z,984.4
2017-06-21T02:04:14.293Z,984.4
2017-06-21T02:05:16.819Z,984.5
2017-06-21T02:06:19.249Z,984.5
2017-06-21T02:07:21.743Z,984.4
2017-06-21T02:08:24.250Z,984.4
2017-06-21T02:09:26.689Z,984.4
2017-06-21T02:10:29.170Z,984.5
2017-06-21T02:11:31.645Z,984.5
2017-06-21T02:12:34.136Z,984.4
2017-06-21T02:13:36.629Z,984.4
2017-06-21T02:14:39.075Z,984.1
2017-06-21T02:15:41.553Z,984.4
2017-06-21T02:16:44.035Z,984.4
2017-06-21T02:17:46.520Z,984.5
2017-06-21T02:18:49.032Z,984.4
2017-06-21T02:19:51.477Z,984.4
2017-06-21T02:20:53.891Z,984.4
2017-06-21T02:21:56.387Z,984.4
2017-06-21T02:22:58.907Z,984.4
2017-06-21T02:24:01.861Z,984.4
2017-06-21T02:25:04.351Z,984.4
2017-06-21T02:26:06.820Z,984.4
2017-06-21T02:27:09.336Z,984.5
2017-06-21T02:28:11.941Z,984.5
2017-06-21T02:29:14.406Z,984.5
2017-06-21T02:30:17.875Z,984.5
2017-06-21T02:31:20.306Z,984.5
2017-06-21T02:32:22.798Z,984.5
2017-06-21T02:33:25.335Z,984.5
2017-06-21T02:34:27.827Z,984.6
2017-06-21T02:35:30.297Z,984.5
2017-06-21T02:36:32.936Z,984.6
2017-06-21T02:37:35.400Z,984.6
2017-06-21T02:38:37.869Z,984.6
2017-06-21T02:39:40.559Z,984.6
2017-06-21T02:40:43.002Z,984.6
2017-06-21T02:41:45.457Z,984.5
2017-06-21T02:42:47.959Z,984.6
2017-06-21T02:43:50.409Z,984.5
2017-06-21T02:44:52.936Z,984.6
2017-06-21T02:45:55.403Z,984.5
2017-06-21T02:46:57.876Z,984.5
2017-06-21T02:48:00.341Z,984.6
2017-06-21T02:49:02.789Z,984.5
2017-06-21T02:50:05.275Z,984.5
2017-06-21T02:51:07.834Z,984.5
2017-06-21T02:52:10.304Z,984.5
2017-06-21T02:53:12.850Z,984.4
2017-06-21T02:54:15.340Z,984.5
2017-06-21T02:55:18.248Z,984.5
2017-06-21T02:56:20.679Z,984.6
2017-06-21T02:57:23.212Z,984.6
2017-06-21T02:58:25.752Z,984.6
2017-06-21T02:59:28.242Z,984.5
2017-06-21T03:00:30.760Z,984.6
2017-06-21T03:01:33.187Z,984.5
2017-06-21T03:02:35.623Z,984.5
2017-06-21T03:03:38.224Z,984.5
2017-06-21T03:04:40.737Z,984.5
2017-06-21T03:05:43.202Z,984.5
2017-06-21T03:06:45.737Z,984.6
2017-06-21T03:07:48.184Z,984.6
2017-06-21T03:08:50.648Z,984.5
2017-06-21T03:09:53.087Z,984.5
2017-06-21T03:10:56.036Z,984.5
2017-06-21T03:11:58.477Z,984.5
2017-06-21T03:13:00.948Z,984.5
2017-06-21T03:14:03.444Z,984.6
2017-06-21T03:15:05.989Z,984.6
2017-06-21T03:16:08.526Z,984.6
2017-06-21T03:17:11.003Z,984.6
2017-06-21T03:18:13.494Z,984.7
2017-06-21T03:19:16.026Z,984.6
2017-06-21T03:20:18.505Z,984.7
2017-06-21T03:21:21.028Z,984.6
2017-06-21T03:22:23.467Z,984.7
2017-06-21T03:23:25.959Z,984.7
2017-06-21T03:24:28.446Z,984.7
2017-06-21T03:25:30.926Z,984.6
2017-06-21T03:26:33.391Z,984.4
2017-06-21T03:27:35.899Z,984.6
2017-06-21T03:28:38.423Z,984.6
2017-06-21T03:29:40.929Z,984.6
2017-06-21T03:30:43.391Z,984.6
2017-06-21T03:31:45.873Z,984.3
2017-06-21T03:32:48.351Z,984.6
2017-06-21T03:33:50.820Z,984.6
2017-06-21T03:34:53.432Z,984.6
2017-06-21T03:35:56.220Z,984.6
2017-06-21T03:36:58.705Z,984.6
2017-06-21T03:38:01.173Z,984.6
2017-06-21T03:39:03.659Z,984.6
2017-06-21T03:40:06.261Z,984.6
2017-06-21T03:41:08.722Z,984.6
2017-06-21T03:42:12.048Z,984
2017-06-21T03:43:14.643Z,984.6
2017-06-21T03:44:17.217Z,984.6
2017-06-21T03:45:19.733Z,984.6
2017-06-21T03:46:22.637Z,984.6
2017-06-21T03:47:25.133Z,984.6
2017-06-21T03:48:27.624Z,984.6
2017-06-21T03:49:30.123Z,984.6
2017-06-21T03:50:32.552Z,984.6
2017-06-21T03:51:35.032Z,984.6
2017-06-21T03:52:37.739Z,984.6
2017-06-21T03:53:40.223Z,984.6
2017-06-21T03:54:42.717Z,984.6
2017-06-21T03:55:45.164Z,984.6
2017-06-21T03:56:47.676Z,984.5
2017-06-21T03:57:50.529Z,984.6
2017-06-21T03:58:53.030Z,984.6
2017-06-21T03:59:55.485Z,984.6
2017-06-21T04:00:57.970Z,984.6
2017-06-21T04:02:00.546Z,984.6
2017-06-21T04:03:03.105Z,984.6
2017-06-21T04:04:05.596Z,984.6
2017-06-21T04:05:08.092Z,984.6
2017-06-21T04:06:10.692Z,984.4
2017-06-21T04:07:13.215Z,984.6
2017-06-21T04:08:15.724Z,984.6
2017-06-21T04:09:18.233Z,984.6
2017-06-21T04:10:20.699Z,984.6
2017-06-21T04:11:23.202Z,984.6
2017-06-21T04:12:25.694Z,984.7
2017-06-21T04:13:28.498Z,984.7
2017-06-21T04:14:30.936Z,984.6
2017-06-21T04:15:33.447Z,984.6
2017-06-21T04:16:35.932Z,984.2
2017-06-21T04:17:38.500Z,984.6
2017-06-21T04:18:40.965Z,984.6
2017-06-21T04:19:43.472Z,984.5
2017-06-21T04:20:46.039Z,984.6
2017-06-21T04:21:48.554Z,984.2
2017-06-21T04:22:51.031Z,984.6
2017-06-21T04:23:53.543Z,984.6
2017-06-21T04:24:56.087Z,984.6
2017-06-21T04:25:58.608Z,984.6
2017-06-21T04:27:01.238Z,984.6
2017-06-21T04:28:03.723Z,984.6
2017-06-21T04:29:06.601Z,984.6
2017-06-21T04:30:09.057Z,984.5
2017-06-21T04:31:11.508Z,984.6
2017-06-21T04:32:14.748Z,984.6
2017-06-21T04:33:17.279Z,984.3
2017-06-21T04:34:19.820Z,984.6
2017-06-21T04:35:22.312Z,984.6
2017-06-21T04:36:24.860Z,984.6
2017-06-21T04:37:27.425Z,984.5
2017-06-21T04:38:30.003Z,984.7
2017-06-21T04:39:32.572Z,984.7
2017-06-21T04:40:35.068Z,984.7
2017-06-21T04:41:37.677Z,984.4
2017-06-21T04:42:40.224Z,984.7
2017-06-21T04:43:42.780Z,984.7
2017-06-21T04:44:45.417Z,984.7
2017-06-21T04:45:48.009Z,984.7
2017-06-21T04:46:50.522Z,984.8
2017-06-21T04:47:53.009Z,984.8
2017-06-21T04:48:55.468Z,984.8
2017-06-21T04:49:58.203Z,984.7
2017-06-21T04:51:01.123Z,984.7
2017-06-21T04:52:03.616Z,984.7
2017-06-21T04:53:06.188Z,984.7
2017-06-21T04:54:08.706Z,984.7
2017-06-21T04:55:11.278Z,984.7
2017-06-21T04:56:13.767Z,984.7
2017-06-21T04:57:16.295Z,984.8
2017-06-21T04:58:18.857Z,984.7
2017-06-21T04:59:21.381Z,984.7
2017-06-21T05:00:24.161Z,984.7
2017-06-21T05:01:26.879Z,984.8
2017-06-21T05:02:29.413Z,984.4
2017-06-21T05:03:31.937Z,984.8
2017-06-21T05:04:34.429Z,984.7
2017-06-21T05:05:37.084Z,984.7
2017-06-21T05:06:39.535Z,984.7
2017-06-21T05:07:42.179Z,984.7
2017-06-21T05:08:44.679Z,984.7
2017-06-21T05:09:47.205Z,984.7
2017-06-21T05:10:49.711Z,984.7
2017-06-21T05:11:52.160Z,984.6
2017-06-21T05:12:54.652Z,984.7
2017-06-21T05:13:57.208Z,984.6
2017-06-21T05:14:59.708Z,984.5
2017-06-21T05:16:02.221Z,984.5
2017-06-21T05:17:04.735Z,984.6
2017-06-21T05:18:07.325Z,984.5
2017-06-21T05:19:09.830Z,984.6
2017-06-21T05:20:12.310Z,984.7
2017-06-21T05:21:14.838Z,984.6
2017-06-21T05:22:21.440Z,984.6
2017-06-21T05:23:23.998Z,984.5
2017-06-21T05:24:26.616Z,984.7
2017-06-21T05:25:29.216Z,984.3
2017-06-21T05:26:31.745Z,984.6
2017-06-21T05:27:34.271Z,984.6
2017-06-21T05:28:36.860Z,984.6
2017-06-21T05:29:39.338Z,984.3
2017-06-21T05:30:42.023Z,984.7
2017-06-21T05:31:44.845Z,984.7
2017-06-21T05:32:47.414Z,984.6
2017-06-21T05:33:49.948Z,984.6
2017-06-21T05:34:52.453Z,984.6
2017-06-21T05:35:54.917Z,984.5
2017-06-21T05:36:57.502Z,984.6
2017-06-21T05:38:00.032Z,984.6
2017-06-21T05:39:02.615Z,984.6
2017-06-21T05:40:05.174Z,984.6
2017-06-21T05:41:07.856Z,984.5
2017-06-21T05:42:10.419Z,984.5
2017-06-21T05:43:12.969Z,984.5
2017-06-21T05:44:15.497Z,984.5
2017-06-21T05:45:18.155Z,984.5
2017-06-21T05:46:20.661Z,984.4
2017-06-21T05:47:23.169Z,984.5
2017-06-21T05:48:25.710Z,984.4
2017-06-21T05:49:28.303Z,983.9
2017-06-21T05:50:30.844Z,984.3
2017-06-21T05:51:33.409Z,984.2
2017-06-21T05:52:36.049Z,984.2
2017-06-21T05:53:38.702Z,984.2
2017-06-21T05:54:41.249Z,984.2
2017-06-21T05:55:43.782Z,984.3
2017-06-21T05:56:46.454Z,984.4
2017-06-21T05:57:48.994Z,984.2
2017-06-21T05:58:51.729Z,984.4
2017-06-21T05:59:54.225Z,984.3
2017-06-21T06:00:56.832Z,984.1
2017-06-21T06:01:59.293Z,984
2017-06-21T06:03:01.804Z,984.2
2017-06-21T06:04:04.362Z,984.3
2017-06-21T06:05:07.065Z,984.2
2017-06-21T06:06:09.580Z,984.3
2017-06-21T06:07:12.097Z,984.3
2017-06-21T06:08:14.670Z,984.2
2017-06-21T06:09:17.183Z,984.2
2017-06-21T06:10:19.777Z,984.2
2017-06-21T06:11:22.331Z,984.1
2017-06-21T06:12:24.856Z,984.1
2017-06-21T06:13:27.401Z,984.2
2017-06-21T06:14:30.407Z,984.2
2017-06-21T06:15:32.924Z,984.2
2017-06-21T06:16:35.408Z,984.2
2017-06-21T06:17:38.720Z,984.3
2017-06-21T06:18:41.258Z,984.2
2017-06-21T06:19:43.761Z,984.2
2017-06-21T06:20:46.381Z,984.2
2017-06-21T06:21:49.046Z,984.2
2017-06-21T06:22:51.647Z,984.3
2017-06-21T06:23:54.220Z,984.2
2017-06-21T06:24:56.806Z,984.2
2017-06-21T06:25:59.365Z,984.2
2017-06-21T06:27:01.970Z,984.2
2017-06-21T06:28:04.499Z,984.3
2017-06-21T06:29:07.132Z,984.4
2017-06-21T06:30:09.741Z,984.3
2017-06-21T06:31:12.343Z,984.3
2017-06-21T06:32:15.534Z,984.3
2017-06-21T06:33:18.413Z,984.3
2017-06-21T06:34:21.236Z,984.4
2017-06-21T06:35:23.802Z,984.3
2017-06-21T06:36:26.467Z,984.4
2017-06-21T06:37:29.312Z,984.4
2017-06-21T06:38:31.930Z,984.3
2017-06-21T06:39:34.445Z,984.3
2017-06-21T06:40:37.140Z,984.4
2017-06-21T06:41:39.746Z,984.3
2017-06-21T06:42:42.273Z,984.1
2017-06-21T06:43:44.747Z,984.2
2017-06-21T06:44:47.369Z,984.1
2017-06-21T06:45:50.012Z,984.4
2017-06-21T06:46:52.569Z,984.4
2017-06-21T06:47:55.129Z,984.4
2017-06-21T06:48:57.708Z,984.3
2017-06-21T06:50:00.611Z,984.2
2017-06-21T06:51:03.067Z,984.4
2017-06-21T06:52:05.627Z,984.1
2017-06-21T06:53:08.270Z,984.3
2017-06-21T06:54:10.966Z,984.4
2017-06-21T06:55:13.752Z,984.5
2017-06-21T06:56:16.424Z,984.4
2017-06-21T06:57:19.051Z,984.3
2017-06-21T06:58:21.660Z,984.2
2017-06-21T06:59:24.219Z,984.3
2017-06-21T07:00:27.006Z,984.3
2017-06-21T07:01:29.604Z,984.3
2017-06-21T07:02:32.167Z,984.4
2017-06-21T07:03:34.681Z,984.3
2017-06-21T07:04:41.846Z,984.3
2017-06-21T07:05:44.863Z,984.4
2017-06-21T07:06:47.439Z,984.4
2017-06-21T07:07:50.224Z,984.4
2017-06-21T07:08:52.875Z,984.5
2017-06-21T07:09:55.459Z,984.1
2017-06-21T07:10:58.167Z,984.4
2017-06-21T07:12:00.779Z,984.4
2017-06-21T07:13:03.328Z,984.4
2017-06-21T07:14:05.848Z,984.3
2017-06-21T07:15:08.432Z,984.4
2017-06-21T07:16:11.087Z,984.3
2017-06-21T07:17:13.694Z,984.3
2017-06-21T07:18:16.171Z,984.3
2017-06-21T07:19:18.728Z,984.3
2017-06-21T07:20:21.257Z,984.4
2017-06-21T07:21:24.436Z,984.2
2017-06-21T07:22:27.134Z,984.4
2017-06-21T07:23:29.674Z,984.3
2017-06-21T07:24:32.204Z,984.3
2017-06-21T07:25:34.758Z,984.2
2017-06-21T07:26:37.290Z,984.3
2017-06-21T07:27:39.903Z,984.4
2017-06-21T07:28:42.480Z,984.4
2017-06-21T07:29:45.021Z,984.3
2017-06-21T07:30:47.619Z,984.3
2017-06-21T07:31:50.157Z,984.3
2017-06-21T07:32:52.835Z,984.2
2017-06-21T07:33:55.718Z,984
2017-06-21T07:34:58.988Z,984.3
2017-06-21T07:36:01.609Z,984.2
2017-06-21T07:37:04.505Z,984.2
2017-06-21T07:38:07.210Z,984.2
2017-06-21T07:39:10.358Z,984.2
2017-06-21T07:40:12.882Z,984.1
2017-06-21T07:41:19.532Z,984.2
2017-06-21T07:42:22.124Z,984.1
2017-06-21T07:43:24.874Z,984.1
2017-06-21T07:44:27.453Z,984.1
2017-06-21T07:45:29.994Z,984
2017-06-21T07:46:38.269Z,984.2
2017-06-21T07:47:41.769Z,984.2
2017-06-21T07:48:44.605Z,984.2
2017-06-21T07:49:47.267Z,984.2
2017-06-21T07:50:50.006Z,984.1
2017-06-21T07:51:57.971Z,984.1
2017-06-21T07:53:00.992Z,983.8
2017-06-21T07:54:03.601Z,983.9
2017-06-21T07:55:06.215Z,984.2
2017-06-21T07:56:08.830Z,984.1
2017-06-21T07:57:11.524Z,984.1
2017-06-21T07:58:20.471Z,984.2
2017-06-21T07:59:23.194Z,984
2017-06-21T08:00:25.668Z,984.3
2017-06-21T08:01:28.405Z,983.9
2017-06-21T08:02:30.975Z,984.1
2017-06-21T08:03:39.375Z,983.8
2017-06-21T08:04:42.384Z,984.1
2017-06-21T08:05:51.196Z,984
2017-06-21T08:06:58.869Z,984
2017-06-21T08:08:01.549Z,984
2017-06-21T08:09:04.620Z,984.1
2017-06-21T08:10:07.473Z,984.1
2017-06-21T08:11:10.085Z,984.2
2017-06-21T08:12:12.944Z,983.7
2017-06-21T08:13:16.270Z,984.1
2017-06-21T08:14:18.898Z,984.1
2017-06-21T08:15:22.013Z,984
2017-06-21T08:16:25.266Z,984.1
2017-06-21T08:17:27.972Z,984.1
2017-06-21T08:18:30.576Z,984
2017-06-21T08:19:33.096Z,983.7
2017-06-21T08:20:35.564Z,983.9
2017-06-21T08:21:38.239Z,983.8
2017-06-21T08:22:40.999Z,983.5
2017-06-21T08:23:43.620Z,983.8
2017-06-21T08:24:46.376Z,983.8
2017-06-21T08:25:49.537Z,983.8
2017-06-21T08:26:52.066Z,983.8
2017-06-21T08:27:54.696Z,983.6
2017-06-21T08:28:57.322Z,983.9
2017-06-21T08:29:59.908Z,983.8
2017-06-21T08:31:02.526Z,983.8
2017-06-21T08:32:05.123Z,983.7
2017-06-21T08:33:07.943Z,983.8
2017-06-21T08:34:10.546Z,983.7
2017-06-21T08:35:13.126Z,983.9
2017-06-21T08:36:15.848Z,983.9
2017-06-21T08:37:18.601Z,983.9
2017-06-21T08:38:21.261Z,983.8
2017-06-21T08:39:24.455Z,983.8
2017-06-21T08:40:27.352Z,983.9
2017-06-21T08:41:29.882Z,983.6
2017-06-21T08:42:33.186Z,983.7
2017-06-21T08:43:35.883Z,983.8
2017-06-21T08:44:38.557Z,983.7
2017-06-21T08:45:41.296Z,983.7
2017-06-21T08:46:43.849Z,983.7
2017-06-21T08:47:46.492Z,983.8
2017-06-21T08:48:49.346Z,983.7
2017-06-21T08:49:51.985Z,983.7
2017-06-21T08:50:54.844Z,983.4
2017-06-21T08:51:57.576Z,983.7
2017-06-21T08:53:00.196Z,983.7
2017-06-21T08:54:02.766Z,983.7
2017-06-21T08:55:05.335Z,983.8
2017-06-21T08:56:08.148Z,983.8
2017-06-21T08:57:10.658Z,983.8
2017-06-21T08:58:13.192Z,983.8
2017-06-21T08:59:15.992Z,983.7
2017-06-21T09:00:18.861Z,983.6
2017-06-21T09:01:21.494Z,983.7
2017-06-21T09:02:24.140Z,983.8
2017-06-21T09:03:26.838Z,983.7
2017-06-21T09:04:29.489Z,983.7
2017-06-21T09:05:32.148Z,983.7
2017-06-21T09:06:34.808Z,983.6
2017-06-21T09:07:37.419Z,983.5
2017-06-21T09:08:39.957Z,983.7
2017-06-21T09:09:42.641Z,983.7
2017-06-21T09:10:45.213Z,983.7
2017-06-21T09:11:47.854Z,983.7
2017-06-21T09:12:50.422Z,983.7
2017-06-21T09:13:53.020Z,983.7
2017-06-21T09:14:55.575Z,983.7
2017-06-21T09:15:58.255Z,983.7
2017-06-21T09:18:08.449Z,983.2
2017-06-21T09:19:11.184Z,983.7
2017-06-21T09:20:13.840Z,983.7
2017-06-21T09:21:16.568Z,983.6
2017-06-21T09:22:19.349Z,983.6
2017-06-21T09:23:21.957Z,983.6
2017-06-21T09:24:24.562Z,983.6
2017-06-21T09:25:27.307Z,983.6
2017-06-21T09:26:29.904Z,983.6
2017-06-21T09:27:37.996Z,983.4
2017-06-21T09:28:40.714Z,983.7
2017-06-21T09:29:43.642Z,983.4
2017-06-21T09:30:46.284Z,983.6
2017-06-21T09:31:48.976Z,983.6
2017-06-21T09:32:53.174Z,983.6
2017-06-21T09:33:55.816Z,983.7
2017-06-21T09:34:58.624Z,983.5
2017-06-21T09:36:01.170Z,983.3
2017-06-21T09:37:03.968Z,983.5
2017-06-21T09:38:07.305Z,983.5
2017-06-21T09:39:10.066Z,983.6
2017-06-21T09:40:12.821Z,983.6
2017-06-21T09:41:15.730Z,983.4
2017-06-21T09:42:18.524Z,983.7
2017-06-21T09:43:21.077Z,983.7
2017-06-21T09:44:23.728Z,983.5
2017-06-21T09:45:26.299Z,983.5
2017-06-21T09:46:29.864Z,983.3
2017-06-21T09:47:32.618Z,983.3
2017-06-21T09:48:35.227Z,983.5
2017-06-21T09:49:37.874Z,983.3
2017-06-21T09:50:40.501Z,983.6
2017-06-21T09:51:43.171Z,983.6
2017-06-21T09:52:45.704Z,983.7
2017-06-21T09:53:50.428Z,983.5
2017-06-21T09:54:53.013Z,983.7
2017-06-21T09:55:55.656Z,983.6
2017-06-21T09:56:58.313Z,983.7
2017-06-21T09:58:00.980Z,983.7
2017-06-21T09:59:03.786Z,983.8
2017-06-21T10:00:06.334Z,983.7
2017-06-21T10:01:09.098Z,983.6
2017-06-21T10:02:11.789Z,983.6
2017-06-21T10:03:15.330Z,983.7
2017-06-21T10:04:20.785Z,983.6
2017-06-21T10:05:23.276Z,983.6
2017-06-21T10:06:25.828Z,983.6
2017-06-21T10:07:28.582Z,983.6
2017-06-21T10:08:31.168Z,983.6
2017-06-21T10:09:33.832Z,983.6
2017-06-21T10:10:36.452Z,983.6
2017-06-21T10:11:39.114Z,983.3
2017-06-21T10:12:42.061Z,983.6
2017-06-21T10:13:44.665Z,983.6
2017-06-21T10:14:52.813Z,983.6
2017-06-21T10:15:56.163Z,983.4
2017-06-21T10:16:58.976Z,983.6
2017-06-21T10:18:01.752Z,983.6
2017-06-21T10:19:04.844Z,983.5
2017-06-21T10:20:07.710Z,983.6
2017-06-21T10:21:10.529Z,983.6
2017-06-21T10:22:13.293Z,983.6
2017-06-21T10:23:15.780Z,983.6
2017-06-21T10:24:18.639Z,983.6
2017-06-21T10:25:21.209Z,983.5
2017-06-21T10:26:23.777Z,983.5
2017-06-21T10:27:26.522Z,983.4
2017-06-21T10:28:29.515Z,983.4
2017-06-21T10:29:32.318Z,983.4
2017-06-21T10:30:35.060Z,983.4
2017-06-21T10:31:37.811Z,983.4
2017-06-21T10:32:40.391Z,983.3
2017-06-21T10:33:43.025Z,983.1
2017-06-21T10:34:45.639Z,983.3
2017-06-21T10:35:48.255Z,983.3
2017-06-21T10:36:51.434Z,983.3
2017-06-21T10:37:54.081Z,983.3
2017-06-21T10:38:56.654Z,983.3
2017-06-21T10:39:59.682Z,983.3
2017-06-21T10:41:02.412Z,983.4
2017-06-21T10:42:05.217Z,983.2
2017-06-21T10:43:07.964Z,983.3
2017-06-21T10:44:10.528Z,983.3
2017-06-21T10:45:13.116Z,983.3
2017-06-21T10:46:15.854Z,983
2017-06-21T10:47:18.882Z,983.4
2017-06-21T10:48:22.494Z,983.3
2017-06-21T10:49:25.136Z,983.2
2017-06-21T10:50:27.848Z,983.4
2017-06-21T10:51:30.433Z,983.1
2017-06-21T10:52:32.991Z,983.4
2017-06-21T10:53:35.507Z,983.5
2017-06-21T10:54:38.140Z,983.4
2017-06-21T10:55:40.741Z,983
2017-06-21T10:56:43.262Z,983.4
2017-06-21T10:57:45.809Z,983.3
2017-06-21T10:58:48.980Z,983.1
2017-06-21T10:59:51.598Z,983.3
2017-06-21T11:00:54.220Z,983.3
2017-06-21T11:01:56.809Z,983.3
2017-06-21T11:03:02.377Z,983.2
2017-06-21T11:04:04.880Z,983.2
2017-06-21T11:05:08.071Z,983.1
2017-06-21T11:06:10.588Z,983.2
2017-06-21T11:07:13.139Z,983.2
2017-06-21T11:08:16.410Z,983.2
2017-06-21T11:09:19.035Z,983
2017-06-21T11:10:21.849Z,983.2
2017-06-21T11:11:24.465Z,983.2
2017-06-21T11:12:27.048Z,983.2
2017-06-21T11:13:30.052Z,983.1
2017-06-21T11:14:33.387Z,983.2
2017-06-21T11:15:35.994Z,983.2
2017-06-21T11:16:38.579Z,983.2
2017-06-21T11:17:41.188Z,983.2
2017-06-21T11:18:43.755Z,983.2
2017-06-21T11:19:46.449Z,983.2
2017-06-21T11:20:49.352Z,983.1
2017-06-21T11:21:51.939Z,983.2
2017-06-21T11:22:54.561Z,983.2
2017-06-21T11:23:57.153Z,983.1
2017-06-21T11:24:59.916Z,983.2
2017-06-21T11:26:02.432Z,983.1
2017-06-21T11:27:05.224Z,983.1
2017-06-21T11:28:07.900Z,983.2
2017-06-21T11:29:10.581Z,983.1
2017-06-21T11:30:13.132Z,983.2
2017-06-21T11:31:15.747Z,983.2
2017-06-21T11:32:18.284Z,983.2
2017-06-21T11:33:21.043Z,983.1
2017-06-21T11:34:23.663Z,983.1
2017-06-21T11:35:26.312Z,983.1
2017-06-21T11:36:28.988Z,983
2017-06-21T11:37:31.705Z,983
2017-06-21T11:38:34.267Z,983
2017-06-21T11:39:36.841Z,983
2017-06-21T11:40:39.539Z,982.7
2017-06-21T11:41:42.178Z,982.9
2017-06-21T11:42:44.754Z,982.7
2017-06-21T11:43:47.725Z,983
2017-06-21T11:44:50.235Z,983
2017-06-21T11:45:52.825Z,983.1
2017-06-21T11:46:55.372Z,982.9
2017-06-21T11:47:58.085Z,983
2017-06-21T11:49:00.961Z,983
2017-06-21T11:50:04.132Z,982.8
2017-06-21T11:51:10.433Z,982.8
2017-06-21T11:52:13.170Z,983.1
2017-06-21T11:53:16.374Z,983.1
2017-06-21T11:54:19.040Z,982.7
2017-06-21T11:55:21.602Z,983
2017-06-21T11:56:24.152Z,983
2017-06-21T11:57:26.814Z,983
2017-06-21T11:58:29.517Z,982.7
2017-06-21T11:59:32.068Z,983
2017-06-21T12:00:34.642Z,983
2017-06-21T12:01:37.206Z,982.9
2017-06-21T12:02:40.652Z,982.9
2017-06-21T12:03:43.321Z,982.9
2017-06-21T12:04:45.896Z,983
2017-06-21T12:05:48.556Z,982.9
2017-06-21T12:06:51.126Z,982.9
2017-06-21T12:07:53.920Z,982.8
2017-06-21T12:08:56.448Z,982.9
2017-06-21T12:09:59.035Z,982.8
2017-06-21T12:11:01.574Z,982.5
2017-06-21T12:12:05.116Z,982.8
2017-06-21T12:13:07.875Z,982.7
2017-06-21T12:14:10.477Z,982.8
2017-06-21T12:15:13.175Z,982.8
2017-06-21T12:16:15.734Z,982.5
2017-06-21T12:17:18.478Z,982.8
2017-06-21T12:18:21.055Z,982.8
2017-06-21T12:19:23.594Z,982.8
2017-06-21T12:20:26.356Z,982.9
2017-06-21T12:21:29.025Z,982.7
2017-06-21T12:22:31.643Z,982.6
2017-06-21T12:23:34.163Z,982.7
2017-06-21T12:24:36.737Z,982.6
2017-06-21T12:25:39.619Z,982.7
2017-06-21T12:26:42.256Z,982.6
2017-06-21T12:27:44.848Z,982.6
2017-06-21T12:28:47.666Z,982.4
2017-06-21T12:29:50.514Z,982.3
2017-06-21T12:30:53.295Z,982.5
2017-06-21T12:31:55.915Z,982.7
2017-06-21T12:32:58.584Z,982.6
2017-06-21T12:34:01.178Z,982.6
2017-06-21T12:35:03.692Z,982.6
2017-06-21T12:36:06.310Z,982.6
2017-06-21T12:37:10.468Z,982.3
2017-06-21T12:38:13.555Z,982.6
2017-06-21T12:39:16.142Z,982.6
2017-06-21T12:40:18.873Z,982.6
2017-06-21T12:41:21.518Z,982.6
2017-06-21T12:42:24.185Z,982.6
2017-06-21T12:43:28.219Z,982.4
2017-06-21T12:44:30.741Z,982.6
2017-06-21T12:45:33.317Z,982.6
2017-06-21T12:46:35.949Z,982.5
2017-06-21T12:47:38.670Z,982.5
2017-06-21T12:48:41.273Z,982.5
2017-06-21T12:49:43.916Z,982.2
2017-06-21T12:50:46.467Z,982.3
2017-06-21T12:51:49.227Z,982.6
2017-06-21T12:52:51.828Z,982.5
2017-06-21T12:53:54.450Z,982.5
2017-06-21T12:54:57.038Z,982.4
2017-06-21T12:55:59.655Z,982.5
2017-06-21T12:57:02.227Z,982.5
2017-06-21T12:58:04.741Z,982.5
2017-06-21T12:59:07.296Z,982.5
2017-06-21T13:00:09.905Z,982.5
2017-06-21T13:01:12.468Z,982.5
2017-06-21T13:02:15.030Z,982.2
2017-06-21T13:03:17.661Z,982.5
2017-06-21T13:04:20.292Z,982.5
2017-06-21T13:05:22.834Z,982.4
2017-06-21T13:06:25.544Z,982.5
2017-06-21T13:07:28.229Z,982.5
2017-06-21T13:08:30.849Z,982.5
2017-06-21T13:09:40.516Z,982.4
2017-06-21T13:10:43.009Z,982.4
2017-06-21T13:11:45.568Z,982.5
2017-06-21T13:12:48.179Z,982.4
2017-06-21T13:13:50.765Z,982.1
2017-06-21T13:14:53.404Z,982.4
2017-06-21T13:15:56.002Z,982.4
2017-06-21T13:16:58.834Z,982
2017-06-21T13:18:01.483Z,982.3
2017-06-21T13:19:04.147Z,982
2017-06-21T13:20:06.777Z,982.3
2017-06-21T13:21:09.495Z,982.3
2017-06-21T13:22:12.037Z,982.3
2017-06-21T13:23:14.687Z,982.3
2017-06-21T13:24:17.260Z,982.2
2017-06-21T13:25:19.921Z,982.3
2017-06-21T13:26:22.479Z,982.3
2017-06-21T13:27:25.103Z,982.3
2017-06-21T13:28:27.762Z,982.2
2017-06-21T13:29:30.245Z,982.3
2017-06-21T13:30:32.815Z,982.3